createdAt,value
2018-01-04T00:01:39.190Z,80.61
2018-01-04T00:04:06.764Z,80.98
2018-01-04T00:06:34.374Z,80.94
2018-01-04T00:09:01.976Z,81.27
2018-01-04T00:11:29.547Z,80.74
2018-01-04T00:13:57.190Z,80.64
2018-01-04T00:16:24.762Z,79.62
2018-01-04T00:18:52.332Z,81.04
2018-01-04T00:21:20.012Z,81.41
2018-01-04T00:23:47.578Z,82.12
2018-01-04T00:26:15.183Z,80.88
2018-01-04T00:28:43.851Z,81.33
2018-01-04T00:31:11.504Z,82.28
2018-01-04T00:33:39.167Z,80.39
2018-01-04T00:36:06.730Z,79.38
2018-01-04T00:38:34.334Z,79.23
2018-01-04T00:41:01.944Z,79.12
2018-01-04T00:43:29.551Z,78.57
2018-01-04T00:45:57.150Z,78.10
2018-01-04T00:48:24.728Z,78.16
2018-01-04T00:50:52.334Z,78.55
2018-01-04T00:53:19.903Z,78.32
2018-01-04T00:55:47.507Z,79.05
2018-01-04T00:58:15.077Z,78.62
2018-01-04T01:00:42.681Z,79.24
2018-01-04T01:03:10.249Z,79.06
2018-01-04T01:05:37.910Z,78.95
2018-01-04T01:08:05.480Z,79.83
2018-01-04T01:10:33.095Z,80.04
2018-01-04T01:13:00.663Z,80.73
2018-01-04T01:15:28.542Z,79.82
2018-01-04T01:17:56.103Z,80.51
2018-01-04T01:20:23.662Z,79.35
2018-01-04T01:22:51.226Z,78.47
2018-01-04T01:25:18.912Z,78.98
2018-01-04T01:27:46.483Z,78.24
2018-01-04T01:30:14.100Z,78.63
2018-01-04T01:32:41.666Z,77.68
2018-01-04T01:35:09.255Z,77.78
2018-01-04T01:37:36.831Z,76.29
2018-01-04T01:40:04.390Z,76.84
2018-01-04T01:42:32.000Z,76.24
2018-01-04T01:44:59.600Z,75.86
2018-01-04T01:47:27.264Z,75.83
2018-01-04T01:49:54.834Z,75.87
2018-01-04T01:52:22.399Z,76.53
2018-01-04T01:54:50.044Z,78.10
2018-01-04T01:57:17.687Z,80.16
2018-01-04T01:59:45.257Z,79.38
2018-01-04T02:02:12.823Z,80.87
2018-01-04T02:04:40.400Z,80.40
2018-01-04T02:07:07.967Z,80.27
2018-01-04T02:09:35.535Z,80.63
2018-01-04T02:12:03.107Z,78.90
2018-01-04T02:14:30.683Z,79.51
2018-01-04T02:16:58.303Z,78.24
2018-01-04T02:19:37.859Z,78.75
2018-01-04T02:22:17.462Z,78.53
2018-01-04T02:24:56.947Z,79.01
2018-01-04T02:27:36.511Z,79.08
2018-01-04T02:30:15.920Z,78.45
2018-01-04T02:32:55.363Z,79.24
2018-01-04T02:35:35.738Z,78.32
2018-01-04T02:38:16.165Z,77.97
2018-01-04T02:40:55.679Z,76.93
2018-01-04T02:43:35.210Z,76.82
2018-01-04T02:46:08.667Z,77.38
2018-01-04T02:48:36.239Z,76.83
2018-01-04T02:51:03.808Z,76.66
2018-01-04T02:53:31.619Z,77.94
2018-01-04T02:55:59.315Z,78.17
2018-01-04T02:58:26.923Z,80.49
2018-01-04T03:00:54.500Z,79.82
2018-01-04T03:03:22.065Z,80.74
2018-01-04T03:05:49.634Z,79.88
2018-01-04T03:08:17.255Z,79.70
2018-01-04T03:10:44.814Z,79.69
2018-01-04T03:13:12.419Z,79.01
2018-01-04T03:15:40.011Z,79.34
2018-01-04T03:18:07.617Z,78.67
2018-01-04T03:20:35.306Z,80.18
2018-01-04T03:23:08.626Z,79.62
2018-01-04T03:25:41.686Z,78.77
2018-01-04T03:28:14.959Z,78.85
2018-01-04T03:30:48.496Z,79.10
2018-01-04T03:33:21.734Z,78.36
2018-01-04T03:35:54.998Z,78.62
2018-01-04T03:38:28.178Z,79.33
2018-01-04T03:41:01.463Z,80.64
2018-01-04T03:43:34.741Z,80.43
2018-01-04T03:46:08.144Z,80.38
2018-01-04T03:48:41.350Z,81.22
2018-01-04T03:51:14.635Z,80.56
2018-01-04T03:53:47.964Z,81.26
2018-01-04T03:56:21.146Z,80.94
2018-01-04T03:58:54.334Z,80.82
2018-01-04T04:01:27.539Z,80.50
2018-01-04T04:03:55.207Z,81.27
2018-01-04T04:06:28.497Z,81.09
2018-01-04T04:08:56.162Z,80.62
2018-01-04T04:11:23.740Z,80.97
2018-01-04T04:13:51.306Z,81.35
2018-01-04T04:16:18.870Z,80.68
2018-01-04T04:18:46.479Z,81.38
2018-01-04T04:21:14.054Z,80.95
2018-01-04T04:23:41.734Z,81.07
2018-01-04T04:26:09.295Z,81.42
2018-01-04T04:28:36.906Z,81.92
2018-01-04T04:31:04.471Z,82.62
2018-01-04T04:33:32.070Z,84.02
2018-01-04T04:35:59.647Z,84.72
2018-01-04T04:38:27.254Z,85.74
2018-01-04T04:40:54.858Z,85.62
2018-01-04T04:43:22.473Z,86.35
2018-01-04T04:45:50.093Z,86.97
2018-01-04T04:48:17.750Z,86.64
2018-01-04T04:50:45.409Z,87.00
2018-01-04T04:53:12.983Z,87.47
2018-01-04T04:55:40.546Z,87.35
2018-01-04T04:58:08.108Z,87.54
2018-01-04T05:00:35.672Z,86.90
2018-01-04T05:03:03.260Z,86.73
2018-01-04T05:05:30.875Z,86.66
2018-01-04T05:07:58.467Z,87.24
2018-01-04T05:10:26.031Z,86.09
2018-01-04T05:12:53.605Z,85.85
2018-01-04T05:15:21.184Z,86.43
2018-01-04T05:17:48.782Z,86.14
2018-01-04T05:20:16.348Z,86.47
2018-01-04T05:22:43.915Z,85.96
2018-01-04T05:25:11.479Z,86.26
2018-01-04T05:27:39.124Z,86.57
2018-01-04T05:30:06.782Z,86.94
2018-01-04T05:32:34.350Z,86.56
2018-01-04T05:35:01.914Z,86.24
2018-01-04T05:37:29.494Z,85.83
2018-01-04T05:39:57.062Z,85.66
2018-01-04T05:42:24.695Z,86.71
2018-01-04T05:44:52.282Z,85.96
2018-01-04T05:47:19.854Z,86.07
2018-01-04T05:49:47.423Z,86.56
2018-01-04T05:52:14.987Z,86.98
2018-01-04T05:54:42.558Z,85.88
2018-01-04T05:57:10.130Z,86.14
2018-01-04T05:59:37.690Z,86.34
2018-01-04T06:02:05.252Z,86.05
2018-01-04T06:04:32.821Z,85.64
2018-01-04T06:07:00.411Z,84.83
2018-01-04T06:09:27.979Z,85.54
2018-01-04T06:11:55.591Z,84.81
2018-01-04T06:14:23.156Z,84.78
2018-01-04T06:16:50.755Z,84.79
2018-01-04T06:19:18.327Z,84.63
2018-01-04T06:21:45.981Z,84.81
2018-01-04T06:24:13.586Z,83.92
2018-01-04T06:26:41.201Z,84.47
2018-01-04T06:29:08.858Z,85.31
2018-01-04T06:31:36.456Z,85.87
2018-01-04T06:34:04.091Z,85.73
2018-01-04T06:36:31.659Z,85.95
2018-01-04T06:38:59.234Z,86.35
2018-01-04T06:41:26.886Z,86.97
2018-01-04T06:43:54.460Z,87.11
2018-01-04T06:46:22.026Z,87.33
2018-01-04T06:48:49.623Z,87.19
2018-01-04T06:51:17.187Z,87.01
2018-01-04T06:53:44.795Z,87.37
2018-01-04T06:56:12.447Z,87.68
2018-01-04T06:58:40.021Z,88.72
2018-01-04T07:01:07.591Z,89.70
2018-01-04T07:03:35.159Z,90.04
2018-01-04T07:06:02.795Z,90.81
2018-01-04T07:08:30.359Z,91.33
2018-01-04T07:10:57.922Z,91.41
2018-01-04T07:13:25.482Z,91.33
2018-01-04T07:15:53.043Z,91.67
2018-01-04T07:18:20.645Z,91.53
2018-01-04T07:20:48.259Z,91.78
2018-01-04T07:23:15.919Z,91.48
2018-01-04T07:25:43.592Z,91.24
2018-01-04T07:28:11.164Z,91.88
2018-01-04T07:30:38.759Z,92.05
2018-01-04T07:33:06.366Z,92.51
2018-01-04T07:35:33.967Z,92.55
2018-01-04T07:38:01.594Z,93.21
2018-01-04T07:40:29.310Z,92.90
2018-01-04T07:42:56.918Z,93.04
2018-01-04T07:45:24.502Z,92.63
2018-01-04T07:47:52.175Z,92.57
2018-01-04T07:50:19.747Z,92.49
2018-01-04T07:52:47.313Z,93.11
2018-01-04T07:55:14.882Z,92.41
2018-01-04T07:57:42.446Z,91.89
2018-01-04T08:00:10.061Z,92.39
2018-01-04T08:02:37.669Z,92.17
2018-01-04T08:05:05.235Z,91.48
2018-01-04T08:07:32.799Z,91.82
2018-01-04T08:10:00.370Z,91.79
2018-01-04T08:12:27.939Z,91.78
2018-01-04T08:14:55.547Z,91.68
2018-01-04T08:17:24.012Z,90.92
2018-01-04T08:19:51.660Z,90.76
2018-01-04T08:22:19.236Z,91.58
2018-01-04T08:24:46.804Z,91.02
2018-01-04T08:27:14.362Z,90.34
2018-01-04T08:29:41.955Z,90.07
2018-01-04T08:32:09.524Z,90.35
2018-01-04T08:34:37.087Z,89.87
2018-01-04T08:37:04.661Z,90.05
2018-01-04T08:39:32.251Z,89.64
2018-01-04T08:41:59.827Z,89.27
2018-01-04T08:44:27.474Z,90.32
2018-01-04T08:46:55.048Z,89.94
2018-01-04T08:49:22.870Z,89.86
2018-01-04T08:51:50.435Z,90.15
2018-01-04T08:54:18.004Z,89.78
2018-01-04T08:56:45.576Z,89.03
2018-01-04T08:59:13.980Z,89.75
2018-01-04T09:01:41.547Z,89.43
2018-01-04T09:04:09.111Z,88.25
2018-01-04T09:06:36.680Z,87.67
2018-01-04T09:09:04.260Z,88.74
2018-01-04T09:11:31.875Z,88.95
2018-01-04T09:13:59.451Z,88.69
2018-01-04T09:16:27.028Z,88.91
2018-01-04T09:18:55.485Z,88.96
2018-01-04T09:21:23.147Z,88.78
2018-01-04T09:23:50.722Z,89.05
2018-01-04T09:26:18.326Z,88.99
2018-01-04T09:28:45.939Z,88.90
2018-01-04T09:31:13.628Z,88.77
2018-01-04T09:33:41.253Z,89.59
2018-01-04T09:36:08.818Z,89.62
2018-01-04T09:38:36.483Z,88.06
2018-01-04T09:41:04.049Z,86.85
2018-01-04T09:43:31.619Z,86.23
2018-01-04T09:45:59.187Z,85.75
2018-01-04T09:48:26.755Z,85.70
2018-01-04T09:50:54.328Z,85.55
2018-01-04T09:53:21.907Z,86.17
2018-01-04T09:55:49.508Z,85.77
2018-01-04T09:58:17.111Z,84.17
2018-01-04T10:00:44.693Z,85.38
2018-01-04T10:03:12.306Z,84.59
2018-01-04T10:05:39.947Z,85.36
2018-01-04T10:08:07.503Z,84.57
2018-01-04T10:10:35.073Z,83.26
2018-01-04T10:13:02.647Z,85.11
2018-01-04T10:15:30.223Z,85.21
2018-01-04T10:17:57.792Z,84.21
2018-01-04T10:20:25.391Z,84.30
2018-01-04T10:22:52.964Z,84.03
2018-01-04T10:25:20.603Z,83.62
2018-01-04T10:27:48.178Z,82.69
2018-01-04T10:30:16.595Z,82.58
2018-01-04T10:32:44.163Z,82.79
2018-01-04T10:35:11.734Z,82.64
2018-01-04T10:37:39.335Z,83.57
2018-01-04T10:40:06.945Z,81.74
2018-01-04T10:42:34.567Z,82.75
2018-01-04T10:45:02.176Z,81.72
2018-01-04T10:47:29.754Z,82.09
2018-01-04T10:49:57.379Z,80.77
2018-01-04T10:52:24.964Z,82.23
2018-01-04T10:54:52.715Z,81.30
2018-01-04T10:57:20.348Z,80.86
2018-01-04T10:59:47.923Z,79.47
2018-01-04T11:02:15.495Z,80.13
2018-01-04T11:04:43.080Z,79.56
2018-01-04T11:07:10.820Z,80.32
2018-01-04T11:09:38.416Z,80.33
2018-01-04T11:12:05.988Z,80.33
2018-01-04T11:14:33.571Z,79.24
2018-01-04T11:17:01.157Z,80.31
2018-01-04T11:19:28.831Z,79.61
2018-01-04T11:21:56.654Z,79.37
2018-01-04T11:24:24.229Z,80.07
2018-01-04T11:26:51.843Z,79.00
2018-01-04T11:29:19.442Z,79.69
2018-01-04T11:31:47.055Z,79.56
2018-01-04T11:34:14.786Z,78.82
2018-01-04T11:36:42.354Z,79.27
2018-01-04T11:39:09.970Z,78.89
2018-01-04T11:41:37.540Z,78.16
2018-01-04T11:44:05.164Z,79.69
2018-01-04T11:46:32.744Z,80.54
2018-01-04T11:49:00.333Z,79.16
2018-01-04T11:51:27.907Z,78.94
2018-01-04T11:53:55.479Z,78.88
2018-01-04T11:56:23.056Z,79.54
2018-01-04T11:58:50.643Z,79.38
2018-01-04T12:01:18.216Z,79.33
2018-01-04T12:03:45.792Z,79.81
2018-01-04T12:06:13.366Z,80.52
2018-01-04T12:08:40.938Z,78.29
2018-01-04T12:11:08.505Z,78.93
2018-01-04T12:13:36.112Z,78.74
2018-01-04T12:16:03.754Z,79.40
2018-01-04T12:18:31.449Z,79.24
2018-01-04T12:20:59.056Z,80.20
2018-01-04T12:23:26.631Z,80.61
2018-01-04T12:25:54.289Z,81.24
2018-01-04T12:28:21.872Z,81.52
2018-01-04T12:30:49.458Z,80.91
2018-01-04T12:33:17.032Z,80.83
2018-01-04T12:35:44.607Z,81.48
2018-01-04T12:38:12.180Z,79.79
2018-01-04T12:40:39.771Z,81.30
2018-01-04T12:43:07.348Z,81.04
2018-01-04T12:48:46.801Z,81.18
2018-01-04T12:51:14.407Z,81.01
2018-01-04T12:53:41.988Z,80.89
2018-01-04T12:56:09.563Z,81.75
2018-01-04T12:58:37.157Z,82.33
2018-01-04T13:01:04.766Z,81.79
2018-01-04T13:03:32.343Z,80.68
2018-01-04T13:05:59.972Z,81.60
2018-01-04T13:08:27.638Z,83.03
2018-01-04T13:10:55.248Z,81.43
2018-01-04T13:13:22.816Z,81.75
2018-01-04T13:15:50.391Z,82.52
2018-01-04T13:18:18.087Z,81.53
2018-01-04T13:20:45.675Z,83.60
2018-01-04T13:23:13.252Z,83.56
2018-01-04T13:25:40.829Z,83.15
2018-01-04T13:28:08.450Z,81.48
2018-01-04T13:30:36.021Z,82.90
2018-01-04T13:33:03.659Z,82.80
2018-01-04T13:35:31.296Z,83.77
2018-01-04T13:37:58.873Z,82.72
2018-01-04T13:40:26.443Z,82.87
2018-01-04T13:42:54.027Z,83.16
2018-01-04T13:45:21.651Z,82.86
2018-01-04T13:47:49.227Z,82.90
2018-01-04T13:50:16.988Z,83.41
2018-01-04T13:52:44.601Z,83.46
2018-01-04T13:55:12.245Z,83.52
2018-01-04T13:57:39.872Z,83.75
2018-01-04T14:00:07.568Z,82.92
2018-01-04T14:02:35.204Z,83.52
2018-01-04T14:05:02.783Z,83.40
2018-01-04T14:07:30.474Z,82.98
2018-01-04T14:09:58.050Z,84.05
2018-01-04T14:12:25.626Z,83.75
2018-01-04T14:14:53.304Z,83.29
2018-01-04T14:17:20.988Z,83.10
2018-01-04T14:19:48.641Z,82.50
2018-01-04T14:22:16.256Z,83.67
2018-01-04T14:24:43.831Z,83.74
2018-01-04T14:27:11.531Z,82.95
2018-01-04T14:29:39.187Z,83.55
2018-01-04T14:32:06.763Z,84.55
2018-01-04T14:34:34.412Z,83.83
2018-01-04T14:37:02.021Z,83.42
2018-01-04T14:39:29.683Z,84.24
2018-01-04T14:41:57.294Z,84.32
2018-01-04T14:44:24.958Z,84.13
2018-01-04T14:46:52.558Z,83.33
2018-01-04T14:49:20.188Z,83.88
2018-01-04T14:51:47.766Z,83.65
2018-01-04T14:54:15.408Z,83.41
2018-01-04T14:56:43.036Z,83.53
2018-01-04T14:59:10.731Z,84.44
2018-01-04T15:01:38.304Z,84.73
2018-01-04T15:04:05.920Z,84.22
2018-01-04T15:06:33.524Z,84.34
2018-01-04T15:09:01.095Z,84.58
2018-01-04T15:11:28.676Z,84.93
2018-01-04T15:13:56.276Z,85.02
2018-01-04T15:16:23.858Z,85.16
2018-01-04T15:18:51.483Z,85.84
2018-01-04T15:21:19.238Z,85.25
2018-01-04T15:23:46.933Z,85.14
2018-01-04T15:26:14.646Z,86.00
2018-01-04T15:28:42.227Z,85.91
2018-01-04T15:31:09.835Z,85.98
2018-01-04T15:33:37.452Z,87.63
2018-01-04T15:36:05.073Z,89.27
2018-01-04T15:38:32.648Z,89.15
2018-01-04T15:41:00.228Z,89.37
2018-01-04T15:43:27.803Z,89.60
2018-01-04T15:45:55.371Z,89.87
2018-01-04T15:48:22.951Z,90.18
2018-01-04T15:50:50.522Z,89.73
2018-01-04T15:53:18.100Z,89.66
2018-01-04T15:55:45.845Z,89.83
2018-01-04T15:58:13.471Z,90.31
2018-01-04T16:00:41.040Z,90.90
2018-01-04T16:03:08.607Z,89.87
2018-01-04T16:05:36.180Z,90.73
2018-01-04T16:08:03.805Z,90.85
2018-01-04T16:10:31.384Z,90.60
2018-01-04T16:12:59.083Z,90.59
2018-01-04T16:15:26.746Z,90.77
2018-01-04T16:17:54.325Z,91.18
2018-01-04T16:20:21.903Z,91.09
2018-01-04T16:22:49.496Z,91.11
2018-01-04T16:25:17.070Z,90.93
2018-01-04T16:27:44.687Z,90.44
2018-01-04T16:30:12.302Z,90.98
2018-01-04T16:32:39.869Z,90.86
2018-01-04T16:35:07.443Z,90.74
2018-01-04T16:37:35.019Z,91.00
2018-01-04T16:40:02.596Z,91.27
2018-01-04T16:42:30.173Z,91.78
2018-01-04T16:44:57.747Z,92.09
2018-01-04T16:47:25.363Z,91.89
2018-01-04T16:49:53.006Z,92.08
2018-01-04T16:52:20.632Z,91.65
2018-01-04T16:54:48.204Z,92.19
2018-01-04T16:57:15.842Z,91.83
2018-01-04T16:59:43.411Z,91.93
2018-01-04T17:02:10.982Z,92.17
2018-01-04T17:04:38.674Z,91.84
2018-01-04T17:07:06.250Z,91.89
2018-01-04T17:09:33.883Z,91.44
2018-01-04T17:12:01.455Z,91.05
2018-01-04T17:14:29.071Z,90.32
2018-01-04T17:16:56.782Z,90.73
2018-01-04T17:19:24.456Z,90.62
2018-01-04T17:21:52.075Z,90.83
2018-01-04T17:24:19.826Z,91.20
2018-01-04T17:26:47.476Z,90.37
2018-01-04T17:29:15.049Z,90.93
2018-01-04T17:31:42.727Z,90.75
2018-01-04T17:34:10.326Z,90.69
2018-01-04T17:36:37.980Z,90.03
2018-01-04T17:39:05.560Z,89.78
2018-01-04T17:41:33.136Z,89.54
2018-01-04T17:44:00.740Z,90.03
2018-01-04T17:46:28.360Z,90.29
2018-01-04T17:48:55.919Z,90.30
2018-01-04T17:51:23.486Z,90.29
2018-01-04T17:53:51.166Z,90.10
2018-01-04T17:56:18.739Z,90.21
2018-01-04T17:58:46.378Z,90.58
2018-01-04T18:01:14.007Z,90.38
2018-01-04T18:03:41.620Z,89.72
2018-01-04T18:06:09.322Z,89.12
2018-01-04T18:08:36.911Z,88.85
2018-01-04T18:11:04.490Z,89.02
2018-01-04T18:13:32.108Z,88.91
2018-01-04T18:15:59.686Z,88.38
2018-01-04T18:18:27.335Z,87.92
2018-01-04T18:20:54.998Z,88.62
2018-01-04T18:23:22.620Z,89.08
2018-01-04T18:25:50.194Z,88.38
2018-01-04T18:28:17.894Z,87.93
2018-01-04T18:30:45.510Z,87.60
2018-01-04T18:33:13.116Z,87.48
2018-01-04T18:35:40.761Z,88.10
2018-01-04T18:38:08.442Z,87.93
2018-01-04T18:40:36.107Z,87.28
2018-01-04T18:43:03.683Z,88.11
2018-01-04T18:45:31.476Z,87.85
2018-01-04T18:47:59.048Z,88.14
2018-01-04T18:50:26.627Z,88.32
2018-01-04T18:52:54.313Z,88.07
2018-01-04T18:55:21.899Z,87.89
2018-01-04T18:57:49.541Z,88.07
2018-01-04T19:00:17.114Z,87.58
2018-01-04T19:02:44.758Z,87.76
2018-01-04T19:05:12.342Z,87.41
2018-01-04T19:07:39.983Z,87.39
2018-01-04T19:10:07.592Z,87.67
2018-01-04T19:12:35.308Z,88.41
2018-01-04T19:15:02.886Z,87.22
2018-01-04T19:17:30.461Z,87.91
2018-01-04T19:19:58.144Z,87.58
2018-01-04T19:22:26.116Z,88.41
2018-01-04T19:24:53.724Z,87.78
2018-01-04T19:27:21.384Z,87.46
2018-01-04T19:29:48.972Z,87.27
2018-01-04T19:32:16.553Z,87.11
2018-01-04T19:34:44.204Z,87.56
2018-01-04T19:37:11.828Z,87.95
2018-01-04T19:39:39.402Z,87.76
2018-01-04T19:42:07.001Z,87.20
2018-01-04T19:44:34.587Z,86.96
2018-01-04T19:47:02.181Z,86.78
2018-01-04T19:49:29.817Z,87.59
2018-01-04T19:51:57.419Z,87.35
2018-01-04T19:54:25.098Z,87.42
2018-01-04T19:56:52.683Z,88.20
2018-01-04T19:59:20.290Z,89.33
2018-01-04T20:01:47.876Z,89.29
2018-01-04T20:04:15.561Z,89.63
2018-01-04T20:06:43.160Z,90.16
2018-01-04T20:09:10.740Z,90.15
2018-01-04T20:11:38.434Z,89.74
2018-01-04T20:14:06.007Z,90.37
2018-01-04T20:16:33.673Z,90.38
2018-01-04T20:19:01.250Z,91.23
2018-01-04T20:21:28.835Z,90.51
2018-01-04T20:23:56.543Z,90.49
2018-01-04T20:26:24.124Z,90.19
2018-01-04T20:28:51.785Z,90.44
2018-01-04T20:31:19.499Z,89.22
2018-01-04T20:33:47.168Z,89.25
2018-01-04T20:36:14.754Z,90.04
2018-01-04T20:38:42.390Z,89.91
2018-01-04T20:41:09.999Z,89.36
2018-01-04T20:43:37.614Z,90.09
2018-01-04T20:46:05.214Z,88.58
2018-01-04T20:48:33.755Z,88.54
2018-01-04T20:51:01.465Z,89.50
2018-01-04T20:53:29.062Z,89.23
2018-01-04T20:55:56.655Z,89.55
2018-01-04T20:58:24.271Z,89.22
2018-01-04T21:00:51.934Z,89.44
2018-01-04T21:03:19.631Z,90.09
2018-01-04T21:05:47.212Z,90.01
2018-01-04T21:08:14.805Z,90.26
2018-01-04T21:10:42.418Z,90.47
2018-01-04T21:13:10.330Z,91.33
2018-01-04T21:15:37.951Z,91.58
2018-01-04T21:18:05.524Z,92.61
2018-01-04T21:20:33.103Z,92.86
2018-01-04T21:23:00.676Z,93.13
2018-01-04T21:25:28.248Z,93.12
2018-01-04T21:27:55.826Z,93.31
2018-01-04T21:30:23.403Z,93.91
2018-01-04T21:32:51.074Z,93.70
2018-01-04T21:35:18.736Z,93.96
2018-01-04T21:37:46.310Z,94.58
2018-01-04T21:40:13.950Z,94.84
2018-01-04T21:42:42.506Z,95.38
2018-01-04T21:45:10.110Z,95.46
2018-01-04T21:47:37.820Z,95.03
2018-01-04T21:50:05.376Z,95.15
2018-01-04T21:52:32.952Z,95.06
2018-01-04T21:55:00.523Z,95.48
2018-01-04T21:57:28.154Z,95.44
2018-01-04T21:59:55.771Z,95.15
2018-01-04T22:02:23.347Z,95.00
2018-01-04T22:04:50.972Z,95.52
2018-01-04T22:07:18.592Z,95.36
2018-01-04T22:09:46.170Z,95.19
2018-01-04T22:12:13.750Z,95.08
2018-01-04T22:14:41.360Z,95.10
2018-01-04T22:17:08.930Z,94.83
2018-01-04T22:19:36.614Z,94.75
2018-01-04T22:22:04.228Z,95.12
2018-01-04T22:24:31.920Z,94.91
2018-01-04T22:26:59.503Z,94.99
2018-01-04T22:29:27.147Z,95.39
2018-01-04T22:31:54.735Z,95.38
2018-01-04T22:34:22.388Z,95.57
2018-01-04T22:36:49.958Z,95.62
2018-01-04T22:39:17.534Z,95.35
2018-01-04T22:41:45.116Z,95.71
2018-01-04T22:44:12.692Z,96.02
2018-01-04T22:46:40.270Z,95.49
2018-01-04T22:49:07.857Z,95.50
2018-01-04T22:51:35.476Z,95.38
2018-01-04T22:54:03.059Z,95.62
2018-01-04T22:56:31.507Z,95.13
2018-01-04T22:58:59.071Z,95.12
2018-01-04T23:01:26.647Z,94.97
2018-01-04T23:03:54.223Z,95.01
2018-01-04T23:06:21.855Z,94.91
2018-01-04T23:08:49.428Z,94.88
2018-01-04T23:11:17.052Z,95.20
2018-01-04T23:13:44.748Z,94.70
2018-01-04T23:16:12.326Z,94.66
2018-01-04T23:18:40.009Z,94.82
2018-01-04T23:21:07.635Z,94.49
2018-01-04T23:23:36.213Z,94.62
2018-01-04T23:26:03.826Z,94.04
2018-01-04T23:28:31.400Z,94.10
2018-01-04T23:30:58.991Z,94.15
2018-01-04T23:33:26.660Z,94.58
2018-01-04T23:35:54.232Z,94.66
2018-01-04T23:38:21.882Z,94.50
2018-01-04T23:40:49.540Z,94.66
2018-01-04T23:43:17.119Z,94.16
2018-01-04T23:45:44.700Z,94.28
2018-01-04T23:48:12.270Z,94.27
2018-01-04T23:50:39.992Z,94.40
2018-01-04T23:53:07.576Z,94.76
2018-01-04T23:55:35.220Z,94.25
2018-01-04T23:58:02.797Z,94.08
